Time;durP1;ratioP1;P1;durP2;ratioP2;P2;SDS_P1;SDS_P2;PMS_P1;PMS_P2;Temp;Humidity;BMP_temperature;BMP_pressure;BME280_temperature;BME280_humidity;BME280_pressure;Samples;Min_cycle;Max_cycle;Signal;HPM_P1;HPM_P2
2022/06/20 00:00:04;;;;;;;3.97;2.38;;;;;;;23.70;47.04;92870.72;4988435;28;20049;-93
2022/06/20 00:02:30;;;;;;;4.22;2.63;;;;;;;23.69;46.90;92869.25;4983440;28;20044;-94
2022/06/20 00:04:55;;;;;;;3.83;2.65;;;;;;;23.70;47.28;92861.69;4995214;28;20037;-94
2022/06/20 00:07:21;;;;;;;5.43;2.80;;;;;;;23.70;47.08;92862.44;4994901;28;24689;-94
2022/06/20 00:09:47;;;;;;;3.83;2.35;;;;;;;23.70;47.08;92856.91;4995448;28;20060;-93
2022/06/20 00:12:19;;;;;;;4.03;2.30;;;;;;;23.69;47.02;92852.69;4994702;28;20067;-94
2022/06/20 00:14:46;;;;;;;4.03;2.70;;;;;;;23.69;47.16;92849.94;4994946;28;20181;-94
2022/06/20 00:17:11;;;;;;;3.97;2.55;;;;;;;23.69;47.05;92843.66;5005178;28;20037;-93
2022/06/20 00:19:37;;;;;;;4.28;2.72;;;;;;;23.68;47.22;92842.94;5011456;28;20033;-94
2022/06/20 00:22:03;;;;;;;4.43;2.30;;;;;;;23.69;47.29;92841.66;5019328;28;20100;-94
2022/06/20 00:24:30;;;;;;;3.58;2.47;;;;;;;23.69;47.17;92838.88;5011767;28;20113;-94
2022/06/20 00:26:56;;;;;;;3.97;2.78;;;;;;;23.68;47.16;92833.94;5011719;28;20553;-93
2022/06/20 00:29:21;;;;;;;4.10;2.65;;;;;;;23.68;47.21;92825.66;4975372;28;20129;-93
2022/06/20 00:31:47;;;;;;;4.68;2.55;;;;;;;23.66;47.06;92831.72;4991765;28;20033;-94
2022/06/20 00:34:13;;;;;;;3.08;1.98;;;;;;;23.66;47.11;92823.44;4994808;28;20040;-94
2022/06/20 00:36:39;;;;;;;3.58;2.38;;;;;;;23.67;47.09;92821.41;4995423;28;20111;-94
2022/06/20 00:39:04;;;;;;;4.15;2.55;;;;;;;23.68;47.06;92814.59;4990504;28;20131;-94
2022/06/20 00:41:31;;;;;;;3.65;2.30;;;;;;;23.68;46.98;92815.34;5011685;28;20041;-93
2022/06/20 00:43:57;;;;;;;4.05;2.65;;;;;;;23.69;47.08;92814.03;4978703;28;20038;-93
2022/06/20 00:46:36;;;;;;;3.25;2.33;;;;;;;23.65;47.04;92819.22;5027145;28;20052;-93
2022/06/20 00:49:10;;;;;;;3.80;2.20;;;;;;;23.66;46.97;92819.94;4993945;28;20072;-93
2022/06/20 00:51:37;;;;;;;4.30;2.50;;;;;;;23.69;47.08;92818.84;4966339;28;20092;-94
2022/06/20 00:54:14;;;;;;;3.50;2.33;;;;;;;23.65;46.95;92816.47;4972934;28;20046;-94
2022/06/20 00:56:50;;;;;;;2.95;2.22;;;;;;;23.66;47.11;92817.94;4958665;28;20050;-93
2022/06/20 00:59:16;;;;;;;2.80;2.00;;;;;;;23.66;47.10;92812.41;4958315;28;20054;-94
2022/06/20 01:01:41;;;;;;;4.82;3.15;;;;;;;23.65;47.44;92810.19;4965477;28;20044;-94
2022/06/20 01:04:10;;;;;;;2.63;2.28;;;;;;;23.64;47.18;92808.72;4947882;28;20039;-94
2022/06/20 01:06:44;;;;;;;3.58;2.38;;;;;;;23.65;47.04;92813.69;4935381;28;20490;-94
2022/06/20 01:09:10;;;;;;;4.05;2.58;;;;;;;23.66;47.15;92812.41;4953635;28;20038;-93
2022/06/20 01:11:43;;;;;;;5.65;2.58;;;;;;;23.65;47.23;92812.97;4954429;28;20053;-94
2022/06/20 01:14:22;;;;;;;3.38;2.47;;;;;;;23.63;46.99;92810.75;4969803;28;20241;-93
2022/06/20 01:16:48;;;;;;;3.45;2.10;;;;;;;23.66;47.23;92806.88;4946212;28;20109;-93
2022/06/20 01:19:14;;;;;;;4.40;2.47;;;;;;;23.65;47.05;92804.69;4937857;28;20074;-93
2022/06/20 01:21:39;;;;;;;2.90;2.38;;;;;;;23.62;46.94;92803.78;4970494;28;20042;-94
2022/06/20 01:24:19;;;;;;;2.45;2.03;;;;;;;23.62;47.21;92794.75;4978888;28;20042;-93
2022/06/20 01:27:12;;;;;;;2.63;1.98;;;;;;;23.62;47.14;92792.00;4974279;28;20538;-93
2022/06/20 01:29:39;;;;;;;3.47;2.10;;;;;;;23.62;47.11;92794.75;4973485;28;20098;-93
2022/06/20 01:32:05;;;;;;;2.88;2.22;;;;;;;23.62;47.21;92797.53;4989053;28;20042;-93
2022/06/20 01:34:31;;;;;;;2.92;2.28;;;;;;;23.61;47.15;92796.78;4989365;28;20533;-94
2022/06/20 01:39:42;;;;;;;2.45;1.63;;;;;;;23.62;47.37;92789.97;4992066;28;20041;-94
2022/06/20 01:42:20;;;;;;;3.35;2.22;;;;;;;23.64;47.16;92790.16;5001804;28;20030;-94
2022/06/20 01:44:53;;;;;;;5.25;2.35;;;;;;;23.63;47.00;92790.72;4987585;28;20224;-93
2022/06/20 01:47:18;;;;;;;3.03;2.08;;;;;;;23.62;47.07;92786.47;5030547;28;20071;-93
2022/06/20 01:49:45;;;;;;;2.10;1.75;;;;;;;23.62;47.01;92786.47;4997780;28;20065;-94
2022/06/20 01:52:35;;;;;;;2.63;1.77;;;;;;;23.62;47.06;92786.47;5006674;28;20387;-94
2022/06/20 01:55:04;;;;;;;4.10;2.33;;;;;;;23.61;47.09;92782.25;5030674;28;20037;-94
2022/06/20 01:57:30;;;;;;;2.83;2.10;;;;;;;23.60;46.87;92778.06;4990232;28;20053;-94
2022/06/20 01:59:58;;;;;;;2.55;1.95;;;;;;;23.61;47.05;92782.25;4997389;28;20056;-94
2022/06/20 02:02:23;;;;;;;2.75;1.88;;;;;;;23.62;47.27;92778.22;5026602;28;20041;-93
2022/06/20 02:04:49;;;;;;;2.17;1.92;;;;;;;23.61;47.30;92773.97;4999916;28;20037;-93
2022/06/20 02:07:15;;;;;;;3.08;1.90;;;;;;;23.61;47.13;92774.72;4972809;28;20120;-93
2022/06/20 02:09:41;;;;;;;2.20;1.80;;;;;;;23.61;47.26;92777.47;4955715;28;20034;-94
2022/06/20 02:12:07;;;;;;;2.38;2.13;;;;;;;23.58;47.31;92782.13;4959945;28;20053;-94
2022/06/20 02:14:47;;;;;;;3.42;1.98;;;;;;;23.60;47.06;92775.31;4960834;28;20496;-94
2022/06/20 02:17:14;;;;;;;3.20;2.25;;;;;;;23.60;47.19;92778.06;4960625;28;20053;-93
2022/06/20 02:19:49;;;;;;;2.15;1.80;;;;;;;23.60;47.24;92773.25;4992068;28;20124;-94
2022/06/20 02:22:15;;;;;;;2.25;1.88;;;;;;;23.60;47.10;92780.81;4992124;28;20037;-93
2022/06/20 02:24:44;;;;;;;2.92;2.03;;;;;;;23.57;47.27;92769.59;4976341;28;20432;-94
2022/06/20 02:27:13;;;;;;;2.95;1.70;;;;;;;23.61;47.33;92777.47;4960144;28;20104;-94
2022/06/20 02:29:38;;;;;;;2.70;1.92;;;;;;;23.57;47.05;92775.13;4960885;28;20034;-93
2022/06/20 02:32:14;;;;;;;2.78;1.67;;;;;;;23.58;47.13;92773.09;4960000;28;20381;-94
2022/06/20 02:34:40;;;;;;;1.58;1.45;;;;;;;23.60;47.29;92780.81;4961057;28;20048;-93
2022/06/20 02:37:09;;;;;;;2.90;2.03;;;;;;;23.58;47.20;92773.84;4959990;28;20104;-94
2022/06/20 02:39:38;;;;;;;3.15;1.60;;;;;;;23.58;47.12;92771.06;4997019;28;20045;-93
2022/06/20 02:42:04;;;;;;;3.03;2.15;;;;;;;23.60;47.18;92769.78;5005142;28;20038;-93
2022/06/20 02:44:30;;;;;;;3.22;1.65;;;;;;;23.56;47.16;92761.88;5013769;28;20042;-94
2022/06/20 02:46:55;;;;;;;2.15;1.63;;;;;;;23.56;47.36;92775.69;4997207;28;20057;-93
2022/06/20 02:49:22;;;;;;;2.28;2.03;;;;;;;23.59;47.03;92769.03;4996719;28;20046;-94
2022/06/20 02:51:52;;;;;;;2.05;1.45;;;;;;;23.58;47.11;92778.63;4995689;28;20056;-93
2022/06/20 02:54:21;;;;;;;2.85;2.25;;;;;;;23.55;47.41;92777.72;4997091;28;20125;-93
2022/06/20 02:56:51;;;;;;;2.67;1.98;;;;;;;23.56;47.49;92783.97;4981337;28;20030;-93
2022/06/20 02:59:21;;;;;;;3.40;2.00;;;;;;;23.55;47.23;92779.72;4981126;28;20137;-94
2022/06/20 03:01:50;;;;;;;3.50;2.47;;;;;;;23.59;47.13;92774.56;4972964;28;20570;-94
2022/06/20 03:04:15;;;;;;;2.55;1.90;;;;;;;23.56;47.14;92776.41;4971677;28;20046;-94
2022/06/20 03:06:49;;;;;;;3.58;2.47;;;;;;;23.54;47.28;92773.47;4956560;28;20456;-94
2022/06/20 03:09:17;;;;;;;2.95;2.00;;;;;;;23.54;47.33;92776.25;4972016;28;20038;-94
2022/06/20 03:11:42;;;;;;;2.47;1.90;;;;;;;23.53;47.23;92777.53;4970333;28;20031;-94
2022/06/20 03:14:14;;;;;;;2.15;1.75;;;;;;;23.56;47.20;92773.66;4972645;28;20046;-93
2022/06/20 03:16:40;;;;;;;2.25;1.88;;;;;;;23.54;47.35;92778.25;4972078;28;20170;-93
2022/06/20 03:19:07;;;;;;;3.38;2.00;;;;;;;23.55;47.32;92769.44;4987868;28;20051;-94
2022/06/20 03:21:36;;;;;;;2.60;1.90;;;;;;;23.54;47.16;92767.22;4952770;28;20482;-93
2022/06/20 03:24:03;;;;;;;2.53;1.90;;;;;;;23.55;47.20;92772.19;4936635;28;20448;-94
2022/06/20 03:26:28;;;;;;;1.67;1.48;;;;;;;23.54;47.24;92773.47;4964512;28;20035;-93
2022/06/20 03:28:54;;;;;;;3.00;2.10;;;;;;;23.54;47.15;92767.22;4960661;28;20390;-94
2022/06/20 03:31:19;;;;;;;2.17;1.63;;;;;;;23.56;47.32;92770.91;4971981;28;20042;-93
2022/06/20 03:33:45;;;;;;;1.63;1.45;;;;;;;23.55;47.06;92769.44;4991014;28;20412;-94
2022/06/20 03:36:13;;;;;;;2.33;1.60;;;;;;;23.55;47.23;92763.91;4976083;28;20038;-93
2022/06/20 03:38:39;;;;;;;2.65;1.85;;;;;;;23.53;47.52;92760.25;5009517;28;20037;-92
2022/06/20 03:41:04;;;;;;;2.80;1.85;;;;;;;23.55;47.21;92760.41;4991376;28;20048;-93
2022/06/20 03:43:30;;;;;;;115.07;103.22;;;;;;;23.58;47.58;92760.03;5010308;28;20041;-94
2022/06/20 03:45:58;;;;;;;8.07;7.13;;;;;;;23.58;47.07;92767.59;4985390;28;20041;-93
2022/06/20 03:48:32;;;;;;;4.15;3.50;;;;;;;23.57;47.10;92771.63;4993499;28;20038;-94
2022/06/20 03:51:26;;;;;;;6.88;5.07;;;;;;;23.60;47.32;92769.78;5017736;28;20128;-95
2022/06/20 03:54:10;;;;;;;4.50;3.22;;;;;;;23.60;47.37;92761.50;4969764;28;20377;-95
2022/06/20 03:57:08;;;;;;;7.68;2.10;;;;;;;23.64;47.25;92759.06;4973989;28;20137;-94
2022/06/20 03:59:46;;;;;;;5.18;2.22;;;;;;;23.58;47.13;92757.28;4959581;28;20038;-93
2022/06/20 04:02:53;;;;;;;14.70;12.52;;;;;;;23.56;47.52;92761.88;4951225;28;20074;-94
2022/06/20 04:05:24;;;;;;;24.00;14.68;;;;;;;23.53;48.14;92768.53;4991117;28;20051;-95
2022/06/20 04:08:00;;;;;;;45.83;30.75;;;;;;;23.51;48.55;92760.03;4968742;28;20054;-95
2022/06/20 04:19:53;;;;;;;62.58;52.08;;;;;;;23.48;49.31;92764.66;4975413;28;20065;-95
2022/06/20 04:22:21;;;;;;;96.05;75.20;;;;;;;23.49;49.34;92771.63;4986240;28;20042;-94
2022/06/20 04:24:56;;;;;;;152.25;75.85;;;;;;;23.53;49.25;92774.78;4996998;28;20030;-95
2022/06/20 04:27:38;;;;;;;73.05;40.13;;;;;;;23.55;49.50;92783.22;4968187;28;20045;-94
2022/06/20 04:33:43;;;;;;;74.60;45.58;;;;;;;23.62;49.18;92775.44;4929836;29;20054;-95
2022/06/20 04:36:49;;;;;;;157.35;111.18;;;;;;;23.62;49.22;92778.22;4933630;28;20054;-94
2022/06/20 04:39:37;;;;;;;85.63;52.28;;;;;;;23.68;48.94;92782.22;4866706;29;20069;-96
2022/06/20 04:42:18;;;;;;;113.72;70.90;;;;;;;23.66;49.24;92776.53;4874100;29;20569;-91
2022/06/20 04:45:21;;;;;;;58.65;22.73;;;;;;;23.68;49.32;92767.69;4871754;29;20059;-95
2022/06/20 04:47:57;;;;;;;48.85;20.58;;;;;;;23.68;49.91;92775.97;4889851;29;20040;-96
2022/06/20 04:50:37;;;;;;;46.38;14.82;;;;;;;23.71;49.85;92761.06;4995750;23;20055;-95
2022/06/20 04:53:29;;;;;;;38.92;17.40;;;;;;;23.71;49.72;92767.31;5045915;23;20043;-96
2022/06/20 04:55:59;;;;;;;44.83;16.00;;;;;;;23.70;49.51;92768.59;4995206;28;20036;-95
2022/06/20 04:58:34;;;;;;;29.05;15.48;;;;;;;23.74;49.11;92766.19;4966070;28;20045;-96
2022/06/20 05:01:13;;;;;;;85.20;46.15;;;;;;;23.75;49.27;92766.94;4981481;28;20132;-95
2022/06/20 05:03:49;;;;;;;62.42;23.52;;;;;;;23.76;49.18;92762.88;4997640;28;20042;-93
2022/06/20 05:06:20;;;;;;;55.95;18.52;;;;;;;23.79;48.90;92754.19;4979141;28;20443;-92
2022/06/20 05:08:53;;;;;;;51.53;17.58;;;;;;;23.78;48.99;92754.75;4980405;28;20124;-93
2022/06/20 05:11:33;;;;;;;58.80;20.75;;;;;;;23.79;49.17;92759.72;4987311;28;20035;-93
2022/06/20 05:14:19;;;;;;;57.37;21.80;;;;;;;23.80;49.12;92744.63;5009559;28;20546;-89
2022/06/20 05:16:48;;;;;;;61.17;26.40;;;;;;;23.86;49.37;92749.91;5010161;28;20061;-89
2022/06/20 05:19:20;;;;;;;92.72;40.55;;;;;;;23.83;49.47;92740.72;5029334;28;20137;-93
2022/06/20 05:21:49;;;;;;;154.18;68.45;;;;;;;23.87;49.62;92752.09;4979814;28;20177;-90
2022/06/20 05:24:16;;;;;;;150.40;71.35;;;;;;;23.91;49.61;92749.69;4987501;28;20037;-90
2022/06/20 05:26:43;;;;;;;139.30;65.93;;;;;;;23.93;49.58;92747.09;4994861;28;20508;-92
2022/06/20 05:29:24;;;;;;;139.35;60.75;;;;;;;23.92;49.52;92745.63;5010335;28;20136;-91
2022/06/20 05:31:52;;;;;;;150.38;68.03;;;;;;;23.96;49.52;92741.75;5003257;28;20045;-93
2022/06/20 05:34:18;;;;;;;151.88;63.85;;;;;;;23.94;49.65;92747.84;5015798;28;20037;-91
2022/06/20 05:36:49;;;;;;;114.47;53.13;;;;;;;23.94;49.55;92739.56;5051573;23;20045;-90
2022/06/20 05:39:23;;;;;;;97.88;49.55;;;;;;;23.98;49.47;92736.41;5037737;28;20041;-92
2022/06/20 05:41:50;;;;;;;108.93;50.08;;;;;;;23.99;49.38;92737.88;5018337;28;20057;-92
2022/06/20 05:44:15;;;;;;;97.50;46.67;;;;;;;24.02;49.61;92733.97;5015201;28;20524;-92
2022/06/20 05:46:50;;;;;;;88.38;44.50;;;;;;;24.00;49.46;92726.25;4986420;28;20073;-89
2022/06/20 05:49:19;;;;;;;125.93;54.95;;;;;;;24.01;49.56;92727.72;5027158;23;20065;-86
2022/06/20 05:51:53;;;;;;;142.85;55.00;;;;;;;24.02;49.46;92737.47;5023813;28;20045;-87
2022/06/20 05:54:22;;;;;;;134.25;53.10;;;;;;;24.06;49.47;92735.03;5000349;28;20035;-89
2022/06/20 05:56:55;;;;;;;116.22;52.15;;;;;;;24.04;49.56;92732.09;5019123;28;20033;-93
2022/06/20 05:59:31;;;;;;;144.80;71.68;;;;;;;24.07;49.65;92733.72;5000295;28;20049;-90
2022/06/20 06:02:09;;;;;;;140.25;69.35;;;;;;;24.05;49.73;92725.28;5010732;28;20045;-94
2022/06/20 06:05:00;;;;;;;118.13;56.83;;;;;;;24.09;49.63;92733.19;5023822;28;20714;-96
2022/06/20 06:07:36;;;;;;;117.43;53.95;;;;;;;24.11;50.12;92727.81;5035681;23;20054;-94
2022/06/20 06:10:15;;;;;;;131.23;51.45;;;;;;;24.18;50.38;92736.06;4979082;28;20042;-90
2022/06/20 06:12:42;;;;;;;376.90;310.95;;;;;;;24.22;50.49;92733.63;5020050;28;20556;-92
2022/06/20 06:15:12;;;;;;;134.23;66.05;;;;;;;24.27;50.07;92748.50;5015957;28;20057;-92
2022/06/20 06:17:46;;;;;;;112.60;56.55;;;;;;;24.29;49.52;92736.91;5012783;28;20044;-94
2022/06/20 06:20:17;;;;;;;109.72;57.72;;;;;;;24.23;49.11;92750.94;4987890;28;20046;-93
2022/06/20 06:22:44;;;;;;;89.20;46.65;;;;;;;24.27;49.20;92751.28;4990255;28;20034;-94
2022/06/20 06:25:20;;;;;;;77.88;43.92;;;;;;;24.30;49.22;92749.41;4973819;28;20171;-93
2022/06/20 06:27:46;;;;;;;78.85;39.72;;;;;;;24.26;49.17;92739.50;4992697;28;20034;-91
2022/06/20 06:30:17;;;;;;;90.18;40.90;;;;;;;24.27;49.28;92745.75;5005731;23;20041;-93
2022/06/20 06:32:45;;;;;;;138.60;45.10;;;;;;;24.26;49.41;92756.06;5019687;23;20052;-95
2022/06/20 06:35:21;;;;;;;89.50;40.42;;;;;;;24.27;49.35;92757.53;5008790;28;20436;-92
2022/06/20 06:37:57;;;;;;;77.72;41.67;;;;;;;24.28;49.70;92747.22;5001984;28;20039;-92
2022/06/20 06:40:32;;;;;;;103.72;49.17;;;;;;;24.26;49.39;92752.56;5002627;28;20097;-94
2022/06/20 06:42:58;;;;;;;81.97;42.97;;;;;;;24.26;49.59;92760.84;5030134;28;20152;-93
2022/06/20 06:45:25;;;;;;;85.50;43.78;;;;;;;24.26;49.46;92769.88;5019182;28;20132;-95
2022/06/20 06:47:57;;;;;;;89.65;44.72;;;;;;;24.26;49.61;92772.63;5018259;28;20041;-95
2022/06/20 06:50:28;;;;;;;105.20;47.45;;;;;;;24.29;49.57;92772.81;5033699;28;20114;-93
2022/06/20 06:53:01;;;;;;;119.03;60.38;;;;;;;24.29;49.64;92786.63;5035363;28;20033;-91
2022/06/20 06:55:38;;;;;;;112.95;53.13;;;;;;;24.26;49.85;92778.16;4997503;28;20120;-93
2022/06/20 06:58:14;;;;;;;97.43;49.63;;;;;;;24.29;49.75;92792.16;5013129;28;20073;-92
2022/06/20 07:00:43;;;;;;;102.05;52.40;;;;;;;24.32;49.78;92775.19;5009760;28;20106;-92
2022/06/20 07:03:14;;;;;;;108.28;47.38;;;;;;;24.27;50.31;92787.19;5034891;28;20081;-92
2022/06/20 07:05:42;;;;;;;99.05;45.20;;;;;;;24.35;49.85;92784.38;5024642;28;20048;-94
2022/06/20 07:08:14;;;;;;;94.85;47.58;;;;;;;24.30;49.75;92783.28;5015085;28;20500;-92
2022/06/20 07:10:46;;;;;;;93.10;45.63;;;;;;;24.34;50.06;92778.09;4981017;28;20045;-96
2022/06/20 07:13:29;;;;;;;98.53;46.90;;;;;;;24.34;50.02;92772.59;5022708;28;20120;-90
2022/06/20 07:15:58;;;;;;;109.53;54.42;;;;;;;24.34;50.15;92769.09;5018513;28;20056;-90
2022/06/20 07:18:46;;;;;;;130.60;54.30;;;;;;;24.37;49.98;92774.22;5009328;28;20038;-93
2022/06/20 07:21:14;;;;;;;101.70;53.47;;;;;;;24.35;50.10;92765.03;4990948;28;20504;-95
2022/06/20 07:23:40;;;;;;;99.95;50.35;;;;;;;24.38;50.24;92772.91;5015795;28;20045;-93
2022/06/20 07:26:06;;;;;;;98.78;51.45;;;;;;;24.38;50.35;92774.94;5025917;28;20534;-93
2022/06/20 07:28:45;;;;;;;130.18;72.65;;;;;;;24.35;50.29;92779.56;4971072;28;20049;-96
2022/06/20 07:31:34;;;;;;;153.63;68.13;;;;;;;24.35;50.06;92796.16;5023678;28;20129;-95
2022/06/20 07:34:18;;;;;;;169.20;75.07;;;;;;;24.37;50.37;92806.63;4990829;28;20092;-96
2022/06/20 07:36:46;;;;;;;188.20;78.60;;;;;;;24.36;50.53;92822.47;5043386;23;20052;-96
2022/06/20 07:39:20;;;;;;;205.73;93.45;;;;;;;24.34;50.57;92835.38;5024551;28;20045;-94
2022/06/20 07:42:07;;;;;;;228.57;106.05;;;;;;;24.34;50.97;92835.38;5028691;28;20679;-94
2022/06/20 07:44:35;;;;;;;198.60;102.45;;;;;;;24.34;50.96;92827.84;4998513;28;20045;-95
2022/06/20 07:47:10;;;;;;;221.75;114.50;;;;;;;24.32;51.09;92835.22;5035860;28;20084;-96
2022/06/20 07:49:37;;;;;;;188.15;99.55;;;;;;;24.35;51.26;92854.16;5009302;28;20037;-93
2022/06/20 07:55:04;;;;;;;210.98;114.40;;;;;;;24.36;51.68;92877.72;5050516;23;20145;-91
2022/06/20 07:57:41;;;;;;;213.73;117.25;;;;;;;24.32;51.82;92863.56;5011175;28;20041;-94
2022/06/20 08:00:13;;;;;;;161.10;87.68;;;;;;;24.33;51.87;92862.28;5009192;28;20044;-91
2022/06/20 08:02:43;;;;;;;192.40;106.82;;;;;;;24.31;52.40;92877.94;5015915;28;20049;-90
2022/06/20 08:05:13;;;;;;;185.18;96.72;;;;;;;24.33;52.14;92880.88;5010965;28;20044;-90
2022/06/20 08:07:41;;;;;;;;;;;;;;;24.28;52.91;92890.84;5011962;28;20051;-95
2022/06/20 08:10:27;;;;;;;101.40;55.60;;;;;;;24.31;53.54;92938.72;5026994;28;19984;-95
2022/06/20 08:12:54;;;;;;;137.60;65.82;;;;;;;24.23;53.61;92930.47;5034978;28;20047;-88
2022/06/20 08:15:24;;;;;;;166.73;68.75;;;;;;;24.22;53.67;92948.34;5049994;28;20053;-91
2022/06/20 08:17:50;;;;;;;130.20;60.28;;;;;;;24.23;53.98;92947.78;5028114;28;20041;-92
2022/06/20 08:20:17;;;;;;;111.22;54.65;;;;;;;24.23;54.12;92977.41;5013055;28;20057;-96
2022/06/20 08:22:48;;;;;;;93.57;48.85;;;;;;;24.22;54.36;92982.22;5042493;28;20175;-93
2022/06/20 08:25:23;;;;;;;106.65;53.25;;;;;;;24.21;54.35;92989.03;5053339;28;20420;-95
2022/06/20 08:27:55;;;;;;;102.82;54.20;;;;;;;24.16;54.57;92970.63;5030890;28;20041;-91
2022/06/20 08:30:28;;;;;;;81.10;45.95;;;;;;;24.20;54.55;92986.81;5024334;28;20044;-94
2022/06/20 08:33:12;;;;;;;80.80;42.72;;;;;;;24.20;54.41;92989.59;5025381;28;20038;-93
2022/06/20 08:36:00;;;;;;;68.07;37.90;;;;;;;24.18;54.65;93003.94;5041304;28;20040;-94
2022/06/20 08:38:34;;;;;;;57.28;32.80;;;;;;;24.15;54.75;92993.28;5024157;28;20056;-88
2022/06/20 08:41:20;;;;;;;59.25;32.53;;;;;;;24.18;54.39;92981.84;5026912;28;20515;-92
2022/06/20 08:44:02;;;;;;;58.10;31.25;;;;;;;24.14;54.45;92989.06;5043314;28;20073;-88
2022/06/20 08:46:54;;;;;;;56.13;33.63;;;;;;;24.11;53.99;92982.63;4995528;28;20045;-92
2022/06/20 08:49:37;;;;;;;80.22;36.05;;;;;;;24.07;54.19;92962.19;5030154;28;20144;-94
2022/06/20 08:52:30;;;;;;;86.65;37.85;;;;;;;24.08;54.02;92961.63;5027150;28;20044;-93
2022/06/20 08:55:14;;;;;;;59.10;29.38;;;;;;;24.02;54.42;92944.56;5041060;28;20044;-91
2022/06/20 08:57:46;;;;;;;72.32;27.23;;;;;;;23.90;54.99;92946.25;5059178;28;20037;-91
2022/06/20 09:00:14;;;;;;;49.97;23.05;;;;;;;23.89;54.75;92988.94;5040562;28;20045;-94
2022/06/20 09:03:00;;;;;;;40.83;21.58;;;;;;;23.91;54.66;92998.16;5043987;28;20051;-92
2022/06/20 09:05:53;;;;;;;57.90;25.40;;;;;;;23.84;55.14;93031.28;5028275;28;20049;-91
2022/06/20 09:08:50;;;;;;;40.97;20.33;;;;;;;23.86;54.62;93043.25;5034494;28;20045;-92
2022/06/20 09:11:43;;;;;;;37.78;17.92;;;;;;;23.83;54.74;93049.88;5017704;28;20129;-92
2022/06/20 09:14:20;;;;;;;90.05;40.10;;;;;;;23.77;55.27;93052.13;5007844;28;20046;-93
2022/06/20 09:17:11;;;;;;;64.22;25.42;;;;;;;23.78;55.13;93097.03;4993669;28;20068;-95
2022/06/20 09:25:13;;;;;;;48.33;21.25;;;;;;;23.65;56.26;93070.34;5161946;23;20046;-93
2022/06/20 09:27:42;;;;;;;99.68;40.10;;;;;;;23.57;56.16;93066.88;5040125;23;20085;-93
2022/06/20 09:30:35;;;;;;;108.15;51.25;;;;;;;23.60;56.13;93062.97;4971615;28;20046;-95
2022/06/20 09:33:23;;;;;;;63.92;25.65;;;;;;;23.57;56.12;93053.81;4989622;28;20043;-95
2022/06/20 09:36:04;;;;;;;66.35;31.77;;;;;;;23.57;56.31;93044.78;4971997;28;20054;-93
2022/06/20 09:38:47;;;;;;;57.97;24.67;;;;;;;23.57;56.52;93031.72;4951797;28;20050;-94
2022/06/20 09:41:25;;;;;;;53.92;27.05;;;;;;;23.60;56.29;93032.63;4994916;28;20143;-94
2022/06/20 09:44:00;;;;;;;54.92;23.55;;;;;;;23.61;56.40;93031.34;4981577;28;20046;-93
2022/06/20 09:46:54;;;;;;;50.70;23.05;;;;;;;23.65;55.86;93028.94;5001390;28;20049;-94
2022/06/20 09:50:14;;;;;;;61.10;27.10;;;;;;;23.66;55.76;93029.69;4990564;28;20099;-96
2022/06/20 09:52:51;;;;;;;83.20;36.28;;;;;;;23.69;55.83;93028.56;4984031;28;20108;-94
2022/06/20 09:55:24;;;;;;;82.15;40.08;;;;;;;23.69;55.77;93031.34;4990319;28;20047;-95
2022/06/20 09:58:10;;;;;;;122.97;44.55;;;;;;;23.72;55.54;93028.19;4979995;28;20106;-95
2022/06/20 10:00:59;;;;;;;142.75;43.38;;;;;;;23.73;55.52;93024.16;4993960;28;20038;-96
2022/06/20 10:04:21;;;;;;;;;;;;;;;;;;;;;
2022/06/20 10:12:13;;;;;;;92.90;35.33;;;;;;;23.77;55.37;93068.69;5220680;22;20066;-92
2022/06/20 10:15:00;;;;;;;69.03;29.98;;;;;;;23.77;55.61;93056.91;5060655;28;20123;-92
2022/06/20 10:17:43;;;;;;;218.75;173.90;;;;;;;23.77;55.82;93074.19;5070057;28;20040;-93
2022/06/20 10:20:22;;;;;;;94.60;52.22;;;;;;;23.79;55.81;93062.59;5049038;28;20045;-91
2022/06/20 10:22:59;;;;;;;69.32;31.92;;;;;;;23.82;55.35;93064.97;5075368;28;20201;-92
2022/06/20 10:25:50;;;;;;;68.00;30.95;;;;;;;23.82;55.47;93070.50;5036829;28;20523;-91
2022/06/20 10:28:22;;;;;;;516.67;461.63;;;;;;;23.81;55.44;93076.59;5051570;28;20039;-93
2022/06/20 10:31:26;;;;;;;173.13;124.78;;;;;;;23.78;55.69;93052.84;5042812;28;20033;-94
2022/06/20 10:34:06;;;;;;;57.35;24.73;;;;;;;23.78;55.46;93061.88;5037446;28;20109;-89
2022/06/20 10:36:46;;;;;;;213.02;188.25;;;;;;;23.80;55.41;93058.56;5051289;28;20048;-89
2022/06/20 10:39:25;;;;;;;96.75;65.47;;;;;;;23.79;55.75;93051.56;5022030;28;20161;-96
2022/06/20 10:42:30;;;;;;;55.17;25.95;;;;;;;23.75;55.52;93049.19;5058557;23;20040;-88
2022/06/20 10:45:06;;;;;;;46.28;24.98;;;;;;;23.80;55.27;93044.75;5054367;28;20026;-88
2022/06/20 10:47:37;;;;;;;53.67;23.92;;;;;;;23.81;55.36;93041.44;5076216;23;20041;-95
2022/06/20 10:50:31;;;;;;;47.20;22.83;;;;;;;23.82;55.51;93039.38;5077575;23;20021;-90
2022/06/20 10:53:05;;;;;;;70.53;46.72;;;;;;;23.85;55.16;93039.03;5045225;28;20048;-90
2022/06/20 10:55:40;;;;;;;74.30;38.63;;;;;;;23.86;55.14;93039.75;5066043;23;20041;-91
2022/06/20 10:58:19;;;;;;;72.85;39.15;;;;;;;23.87;55.33;93032.94;5058550;28;20041;-96
2022/06/20 11:00:50;;;;;;;87.80;44.60;;;;;;;23.89;55.50;93038.66;5053598;23;20038;-94
2022/06/20 11:06:52;;;;;;;122.85;59.03;;;;;;;23.90;54.91;93037.34;5040700;28;20042;-93
2022/06/20 11:09:23;;;;;;;103.75;53.15;;;;;;;23.91;55.18;93034.03;5019050;23;20049;-93
2022/06/20 11:12:14;;;;;;;108.68;63.85;;;;;;;23.90;55.07;93040.13;5163155;23;20037;-93
2022/06/20 11:15:03;;;;;;;96.50;55.78;;;;;;;23.89;55.01;93038.66;4992983;28;20041;-94
2022/06/20 11:17:49;;;;;;;95.20;58.05;;;;;;;23.90;54.95;93035.34;5000434;23;20090;-92
2022/06/20 11:20:33;;;;;;;100.05;64.63;;;;;;;23.91;55.36;93034.03;5018317;28;20385;-91
2022/06/20 11:23:26;;;;;;;99.72;66.22;;;;;;;23.91;55.42;93033.31;5024120;23;20130;-92
2022/06/20 11:29:21;;;;;;;157.80;94.47;;;;;;;23.93;55.22;93017.66;5084234;23;20087;-90
2022/06/20 11:31:49;;;;;;;214.00;119.00;;;;;;;23.95;55.29;93019.88;5031559;23;20126;-90
2022/06/20 11:34:17;;;;;;;197.25;117.55;;;;;;;23.97;55.06;93014.53;5024836;28;20041;-95
2022/06/20 11:36:57;;;;;;;197.45;117.15;;;;;;;23.98;55.15;93010.47;5060873;23;20041;-96
2022/06/20 11:40:00;;;;;;;147.73;89.47;;;;;;;23.99;55.51;93016.72;5030746;28;20056;-94
2022/06/20 11:42:31;;;;;;;157.32;91.32;;;;;;;24.01;55.28;93009.38;5066710;23;20107;-92
2022/06/20 11:45:03;;;;;;;220.98;137.10;;;;;;;23.99;55.49;93014.69;5009079;28;20038;-92
2022/06/20 11:47:36;;;;;;;247.60;139.45;;;;;;;24.03;55.40;93014.31;5013877;28;20046;-94
2022/06/20 11:50:40;;;;;;;198.18;118.40;;;;;;;24.02;55.64;93021.13;4975879;28;20058;-93
2022/06/20 11:53:25;;;;;;;193.30;123.35;;;;;;;24.02;55.64;93021.88;4997697;28;20042;-88
2022/06/20 11:56:19;;;;;;;201.63;119.18;;;;;;;24.04;55.49;93021.28;5017624;28;20042;-89
2022/06/20 11:59:05;;;;;;;161.38;93.47;;;;;;;24.04;55.66;93013.75;5003303;28;20038;-90
2022/06/20 12:03:55;;;;;;;141.23;81.43;;;;;;;24.07;56.20;93003.63;5080808;23;20044;-90
2022/06/20 12:06:45;;;;;;;140.75;80.70;;;;;;;24.04;55.75;93002.69;5055225;28;20064;-88
2022/06/20 12:09:34;;;;;;;137.23;78.68;;;;;;;24.05;55.79;93009.69;5038195;28;20049;-90
2022/06/20 12:12:26;;;;;;;128.35;71.15;;;;;;;24.06;55.86;93000.13;5043709;28;20044;-90
2022/06/20 12:15:13;;;;;;;145.32;70.82;;;;;;;24.06;55.82;93016.69;5042562;28;20072;-91
2022/06/20 12:17:56;;;;;;;122.20;68.05;;;;;;;24.06;55.81;92999.38;5076010;28;20047;-91
2022/06/20 12:23:21;;;;;;;109.05;61.75;;;;;;;24.09;55.61;93004.53;5005078;28;20510;-92
2022/06/20 12:25:49;;;;;;;123.28;61.05;;;;;;;24.08;55.40;93005.09;4999422;28;20077;-91
2022/06/20 12:28:21;;;;;;;101.45;57.92;;;;;;;24.11;55.55;92999.19;4965457;28;20038;-90
2022/06/20 12:31:14;;;;;;;106.22;62.70;;;;;;;24.11;55.56;92993.66;5002736;28;20057;-88
2022/06/20 12:33:48;;;;;;;115.93;60.38;;;;;;;24.14;55.59;93002.84;5002712;28;20045;-92
2022/06/20 12:36:34;;;;;;;98.82;54.03;;;;;;;24.14;55.99;92989.78;5003298;28;20053;-93
2022/06/20 12:39:19;;;;;;;100.13;50.80;;;;;;;24.22;56.48;92990.50;5008086;28;20139;-93